Erato — SVBZ3 — position and weather

sailwx.info

Track history (hours):
 
Tides and Currents Weather Stations Pressure Air Temp Water Temp Dewpoint Dewpoint Depression Visibility Wind Speed Wind Dir Waves Ship Positions

Erato

Last reported at 2018-May-18 14:11 UTC. Time now 2018-May-22 02:22 UTC.
Position N 37°39' E 023°43'.

Length 115 m; draft 6.9 m.

Type: Tanker. MMSI: 236292000.

Date/timePositionNaut miles runAvg speedWind from/ knotsBaromVisibWave heightAir tempDewpointWater temp
2018-May-18 14:11N 37°39' E 023°43'2 9.2
2018-May-18 14:00N 37°41' E 023°42'5 9.3
2018-May-18 13:30N 37°45' E 023°39'5 9.3
2018-May-18 13:00N 37°49' E 023°37'4 8.8
2018-May-18 12:30N 37°53' E 023°36'4 8.0
2018-May-18 12:01N 37°57' E 023°34'3 7.0
2018-May-18 11:30N 38°01' E 023°34'2 3.4
2018-May-18 10:58N 38°02' E 023°36'0 0.0
2018-May-18 10:31N 38°02' E 023°36'0 0.0
2018-May-18 09:58N 38°02' E 023°36'0 0.0
2018-May-18 09:28N 38°02' E 023°36'0 0.0
2018-May-18 09:01N 38°02' E 023°36'0 0.0
2018-May-18 08:31N 38°02' E 023°36'0 0.0
2018-May-18 08:01N 38°02' E 023°36'0 0.0
2018-May-18 07:31N 38°02' E 023°36'0 0.0
2018-May-18 06:58N 38°02' E 023°36'0 0.0
2018-May-18 06:31N 38°02' E 023°36'0 0.0
2018-May-18 05:58N 38°02' E 023°36'0 0.0
2018-May-18 05:31N 38°02' E 023°36'0 0.0
2018-May-18 05:01N 38°02' E 023°36'0 0.0
2018-May-18 04:31N 38°02' E 023°36'0 0.0
2018-May-18 03:58N 38°02' E 023°36'0 0.0
2018-May-18 03:31N 38°02' E 023°36'0 0.0
2018-May-18 02:58N 38°02' E 023°36'0 0.0
2018-May-18 02:28N 38°02' E 023°36'0 0.0
2018-May-18 02:01N 38°02' E 023°36'0 0.0
2018-May-18 01:31N 38°02' E 023°36'0 0.0
2018-May-18 01:01N 38°02' E 023°36'0 0.0
2018-May-18 00:31N 38°02' E 023°36'0 0.0
2018-May-18 00:01N 38°02' E 023°36'0 0.0
2018-May-17 23:31N 38°02' E 023°36'0 0.0
2018-May-17 22:55N 38°02' E 023°36'0 0.0
2018-May-17 22:31N 38°02' E 023°36'0 0.0
2018-May-17 22:01N 38°02' E 023°36'0 0.0
2018-May-17 21:31N 38°02' E 023°36'0 0.0
2018-May-17 21:01N 38°02' E 023°36'0 0.0
2018-May-17 20:31N 38°02' E 023°36'0 0.0
2018-May-17 20:01N 38°02' E 023°36'0 0.0
2018-May-17 19:31N 38°02' E 023°36'0 0.0
2018-May-17 18:58N 38°02' E 023°36'0 0.0
2018-May-17 18:28N 38°02' E 023°36'0 0.0
2018-May-17 18:01N 38°02' E 023°36'0 0.0
2018-May-17 17:31N 38°02' E 023°36'0 0.0
2018-May-17 17:01N 38°02' E 023°36'0 0.0
2018-May-17 16:31N 38°02' E 023°36'0 0.0
2018-May-17 16:01N 38°02' E 023°36'2 3.9
2018-May-17 15:30N 38°01' E 023°33'1 1.8
2018-May-17 14:58N 38°01' E 023°32'0 0.0
2018-May-17 14:28N 38°01' E 023°32'0 0.0
2018-May-17 13:58N 38°01' E 023°32'0 0.0
2018-May-17 13:28N 38°01' E 023°32'0 0.0
2018-May-17 12:58N 38°01' E 023°32'0 0.1
2018-May-17 12:28N 38°01' E 023°32'0 1.0
2018-May-17 12:00N 38°01' E 023°33'4 7.7
2018-May-17 11:31N 37°57' E 023°35'2 4.1
2018-May-17 10:58N 37°55' E 023°34'0 0.1
2018-May-17 10:28N 37°55' E 023°34'0 0.0
2018-May-17 09:58N 37°55' E 023°34'0 0.1
2018-May-17 09:28N 37°55' E 023°34'0 0.1
2018-May-17 08:58N 37°55' E 023°34'0 0.1
2018-May-17 08:28N 37°55' E 023°34'0 0.2
2018-May-17 07:58N 37°55' E 023°34'0 0.1
2018-May-17 07:28N 37°55' E 023°34'0 0.1
2018-May-17 06:58N 37°55' E 023°34'0 0.0
2018-May-17 06:28N 37°55' E 023°34'0 0.1
2018-May-17 05:58N 37°55' E 023°34'0 0.0
2018-May-17 05:28N 37°55' E 023°34'0 0.0
2018-May-17 04:58N 37°55' E 023°34'0 0.1
2018-May-17 04:28N 37°55' E 023°34'0 0.1
2018-May-17 03:58N 37°55' E 023°34'0 0.1
2018-May-17 03:28N 37°55' E 023°34'0 0.0
2018-May-17 02:58N 37°55' E 023°34'0 0.0
2018-May-17 02:28N 37°55' E 023°34'0 0.1
2018-May-17 01:58N 37°55' E 023°34'0 0.0
2018-May-17 01:28N 37°55' E 023°34'0 0.1
2018-May-17 00:58N 37°55' E 023°34'0 0.1
2018-May-17 00:28N 37°55' E 023°34'0 0.0
2018-May-16 23:58N 37°55' E 023°33'0 0.0
2018-May-16 23:28N 37°55' E 023°33'0 0.0
2018-May-16 22:58N 37°55' E 023°33'0 0.0
2018-May-16 22:28N 37°55' E 023°33'0 0.1
2018-May-16 21:58N 37°55' E 023°33'0 0.1
2018-May-16 21:29N 37°55' E 023°34'1 1.1
2018-May-16 21:00N 37°54' E 023°34'4 8.7
2018-May-16 20:30N 37°52' E 023°38'5 9.1
2018-May-16 20:00N 37°48' E 023°41'5 9.3
2018-May-16 19:30N 37°44' E 023°44'52 8.9
2018-May-16 13:41N 37°23' E 024°44'2 9.8
2018-May-16 13:30N 37°22' E 024°46'5 9.9
2018-May-16 13:00N 37°20' E 024°52'5 9.7
2018-May-16 12:30N 37°19' E 024°58'5 9.5
2018-May-16 11:59N 37°19' E 025°04'4 9.2
2018-May-16 11:30N 37°18' E 025°09'5 9.4
2018-May-16 11:00N 37°17' E 025°15'5 9.2
2018-May-16 10:30N 37°16' E 025°21'5 9.0
2018-May-16 10:00N 37°16' E 025°26'11 9.5
2018-May-16 08:54N 37°13' E 025°39'410.4
2018-May-16 08:30N 37°12' E 025°44'  
2018-May-10 23:58N 32°48' E 032°14'1 0.7
2018-May-10 22:04N 32°49' E 032°15'0 0.8
2018-May-10 22:00N 32°49' E 032°15'4 1.0
2018-May-10 18:24N 32°52' E 032°19'0 1.0
2018-May-10 18:00N 32°52' E 032°19'1 1.0
2018-May-10 17:30N 32°52' E 032°20'1 1.1
2018-May-10 17:00N 32°53' E 032°20'1 1.2
2018-May-10 16:30N 32°53' E 032°21'2 0.4
2018-May-10 11:25N 32°53' E 032°23'15 8.6
2018-May-10 09:42N 32°38' E 032°21'  
Track history (hours):
 
Tides and Currents Weather Stations Pressure Air Temp Water Temp Dewpoint Dewpoint Depression Visibility Wind Speed Wind Dir Waves Ship Positions

Erato

Last reported at 2018-May-18 14:11 UTC. Time now 2018-May-22 02:23 UTC.
Position N 37°39' E 023°43'.

Length 115 m; draft 6.9 m.

Type: Tanker. MMSI: 236292000.

Date/timePositionNaut miles runAvg speedWind from/ knotsBaromVisibWave heightAir tempDewpointWater temp
2018-May-18 14:11N 37°39' E 023°43'2 9.2
2018-May-18 14:00N 37°41' E 023°42'5 9.3
2018-May-18 13:30N 37°45' E 023°39'5 9.3
2018-May-18 13:00N 37°49' E 023°37'4 8.8
2018-May-18 12:30N 37°53' E 023°36'4 8.0
2018-May-18 12:01N 37°57' E 023°34'3 7.0
2018-May-18 11:30N 38°01' E 023°34'2 3.4
2018-May-18 10:58N 38°02' E 023°36'0 0.0
2018-May-18 10:31N 38°02' E 023°36'0 0.0
2018-May-18 09:58N 38°02' E 023°36'0 0.0
2018-May-18 09:28N 38°02' E 023°36'0 0.0
2018-May-18 09:01N 38°02' E 023°36'0 0.0
2018-May-18 08:31N 38°02' E 023°36'0 0.0
2018-May-18 08:01N 38°02' E 023°36'0 0.0
2018-May-18 07:31N 38°02' E 023°36'0 0.0
2018-May-18 06:58N 38°02' E 023°36'0 0.0
2018-May-18 06:31N 38°02' E 023°36'0 0.0
2018-May-18 05:58N 38°02' E 023°36'0 0.0
2018-May-18 05:31N 38°02' E 023°36'0 0.0
2018-May-18 05:01N 38°02' E 023°36'0 0.0
2018-May-18 04:31N 38°02' E 023°36'0 0.0
2018-May-18 03:58N 38°02' E 023°36'0 0.0
2018-May-18 03:31N 38°02' E 023°36'0 0.0
2018-May-18 02:58N 38°02' E 023°36'0 0.0
2018-May-18 02:28N 38°02' E 023°36'0 0.0
2018-May-18 02:01N 38°02' E 023°36'0 0.0
2018-May-18 01:31N 38°02' E 023°36'0 0.0
2018-May-18 01:01N 38°02' E 023°36'0 0.0
2018-May-18 00:31N 38°02' E 023°36'0 0.0
2018-May-18 00:01N 38°02' E 023°36'0 0.0
2018-May-17 23:31N 38°02' E 023°36'0 0.0
2018-May-17 22:55N 38°02' E 023°36'0 0.0
2018-May-17 22:31N 38°02' E 023°36'0 0.0
2018-May-17 22:01N 38°02' E 023°36'0 0.0
2018-May-17 21:31N 38°02' E 023°36'0 0.0
2018-May-17 21:01N 38°02' E 023°36'0 0.0
2018-May-17 20:31N 38°02' E 023°36'0 0.0
2018-May-17 20:01N 38°02' E 023°36'0 0.0
2018-May-17 19:31N 38°02' E 023°36'0 0.0
2018-May-17 18:58N 38°02' E 023°36'0 0.0
2018-May-17 18:28N 38°02' E 023°36'0 0.0
2018-May-17 18:01N 38°02' E 023°36'0 0.0
2018-May-17 17:31N 38°02' E 023°36'0 0.0
2018-May-17 17:01N 38°02' E 023°36'0 0.0
2018-May-17 16:31N 38°02' E 023°36'0 0.0
2018-May-17 16:01N 38°02' E 023°36'2 3.9
2018-May-17 15:30N 38°01' E 023°33'1 1.8
2018-May-17 14:58N 38°01' E 023°32'0 0.0
2018-May-17 14:28N 38°01' E 023°32'0 0.0
2018-May-17 13:58N 38°01' E 023°32'0 0.0
2018-May-17 13:28N 38°01' E 023°32'0 0.0
2018-May-17 12:58N 38°01' E 023°32'0 0.1
2018-May-17 12:28N 38°01' E 023°32'0 1.0
2018-May-17 12:00N 38°01' E 023°33'4 7.7
2018-May-17 11:31N 37°57' E 023°35'2 4.1
2018-May-17 10:58N 37°55' E 023°34'0 0.1
2018-May-17 10:28N 37°55' E 023°34'0 0.0
2018-May-17 09:58N 37°55' E 023°34'0 0.1
2018-May-17 09:28N 37°55' E 023°34'0 0.1
2018-May-17 08:58N 37°55' E 023°34'0 0.1
2018-May-17 08:28N 37°55' E 023°34'0 0.2
2018-May-17 07:58N 37°55' E 023°34'0 0.1
2018-May-17 07:28N 37°55' E 023°34'0 0.1
2018-May-17 06:58N 37°55' E 023°34'0 0.0
2018-May-17 06:28N 37°55' E 023°34'0 0.1
2018-May-17 05:58N 37°55' E 023°34'0 0.0
2018-May-17 05:28N 37°55' E 023°34'0 0.0
2018-May-17 04:58N 37°55' E 023°34'0 0.1
2018-May-17 04:28N 37°55' E 023°34'0 0.1
2018-May-17 03:58N 37°55' E 023°34'0 0.1
2018-May-17 03:28N 37°55' E 023°34'0 0.0
2018-May-17 02:58N 37°55' E 023°34'0 0.0
2018-May-17 02:28N 37°55' E 023°34'0 0.1
2018-May-17 01:58N 37°55' E 023°34'0 0.0
2018-May-17 01:28N 37°55' E 023°34'0 0.1
2018-May-17 00:58N 37°55' E 023°34'0 0.1
2018-May-17 00:28N 37°55' E 023°34'0 0.0
2018-May-16 23:58N 37°55' E 023°33'0 0.0
2018-May-16 23:28N 37°55' E 023°33'0 0.0
2018-May-16 22:58N 37°55' E 023°33'0 0.0
2018-May-16 22:28N 37°55' E 023°33'0 0.1
2018-May-16 21:58N 37°55' E 023°33'0 0.1
2018-May-16 21:29N 37°55' E 023°34'1 1.1
2018-May-16 21:00N 37°54' E 023°34'4 8.7
2018-May-16 20:30N 37°52' E 023°38'5 9.1
2018-May-16 20:00N 37°48' E 023°41'5 9.3
2018-May-16 19:30N 37°44' E 023°44'52 8.9
2018-May-16 13:41N 37°23' E 024°44'2 9.8
2018-May-16 13:30N 37°22' E 024°46'5 9.9
2018-May-16 13:00N 37°20' E 024°52'5 9.7
2018-May-16 12:30N 37°19' E 024°58'5 9.5
2018-May-16 11:59N 37°19' E 025°04'4 9.2
2018-May-16 11:30N 37°18' E 025°09'5 9.4
2018-May-16 11:00N 37°17' E 025°15'5 9.2
2018-May-16 10:30N 37°16' E 025°21'5 9.0
2018-May-16 10:00N 37°16' E 025°26'11 9.5
2018-May-16 08:54N 37°13' E 025°39'410.4
2018-May-16 08:30N 37°12' E 025°44'  
2018-May-10 23:58N 32°48' E 032°14'1 0.7
2018-May-10 22:04N 32°49' E 032°15'0 0.8
2018-May-10 22:00N 32°49' E 032°15'4 1.0
2018-May-10 18:24N 32°52' E 032°19'0 1.0
2018-May-10 18:00N 32°52' E 032°19'1 1.0
2018-May-10 17:30N 32°52' E 032°20'1 1.1
2018-May-10 17:00N 32°53' E 032°20'1 1.2
2018-May-10 16:30N 32°53' E 032°21'2 0.4
2018-May-10 11:25N 32°53' E 032°23'15 8.6
2018-May-10 09:42N 32°38' E 032°21'  

Dump ship's entire track history